• Join FlightAware (Why Join?)
  • Login
  • US Flag 
Rudolph Flight #1: Arrived! 
09:37PM EST


 

Airport Tracker/Info


-or-


 

Live Flight TrackerFlight Track Log ✈ N454QS ✈ 14-Jul-2013 ✈ KFOK - EGPE / INV

Flight Track Log - Related Links

Times and Time Zones

All times are in EDT time to prevent confusion due to time zone crossing. See the N454QS flight status page for this flight to view local times or setup timezone preferences in your user account.

Time Position Orientation Groundspeed Altitude Reporting Facility
EDT Latitude Longitude Course Direction KTS MPH feet Rate Location/Type
08:12PM 40.8167 -72.6500 56° Northeast 205 236 1,500  Level New York TRACON
08:13PM 40.8000 -72.5833 108° East 235 270 2,000 1,380 Climbing New York TRACON
08:15PM 40.9269 -72.4188 333° Northwest  Level Estimated
08:15PM 40.9000 -72.5167 333° Northwest 259 298 5,800  Level New York TRACON
08:16PM 40.9500 -72.5833 315° West 265 305 8,300 2,100 Climbing New York TRACON
08:17PM 41.0000 -72.6667 309° West 274 315 10,000 840 Climbing New York TRACON
08:18PM 41.4327 -72.9846 56° Northeast  Level FlightAware Approximate
08:18PM 41.0500 -72.7667 304° West 321 369 10,000  Level New York TRACON
08:19PM 41.1000 -72.8500 309° West 329 379 10,000  Level New York TRACON
08:21PM 41.1797 -73.0108 303° West 339 390 10,000 480 Level Boston Center
08:22PM 41.2608 -73.0642 334° Northwest 314 361 11,400 1,800 Climbing Boston Center
08:23PM 41.3503 -73.1008 343° North 329 379 13,600 1,800 Climbing Boston Center
08:24PM 41.4275 -73.0408 30° Northeast 329 379 15,100 1,800 Climbing Boston Center
08:25PM 41.4867 -72.9056 60° Northeast 343 395 17,200 1,560 Climbing Boston Center
08:26PM 41.5350 -72.7950 60° Northeast 373 429 18,300 1,200 Climbing Boston Center
08:27PM 41.5958 -72.6567 60° Northeast 382 440 19,700 1,380 Climbing Boston Center
08:28PM 41.6522 -72.5233 60° Northeast 394 453 21,100 1,320 Climbing Boston Center
08:29PM 41.7106 -72.3928 59° Northeast 399 459 22,400 1,200 Climbing Boston Center
08:30PM 41.7833 -72.2703 51° Northeast 404 465 23,600 1,140 Climbing Boston Center
08:31PM 41.8750 -72.1642 41° Northeast 411 473 24,700 900 Climbing Boston Center
08:32PM 41.9642 -72.0575 42° Northeast 411 473 25,500 840 Climbing Boston Center
08:33PM 42.0575 -71.9481 41° Northeast 429 494 26,400 900 Climbing Boston Center
08:34PM 42.1528 -71.8353 41° Northeast 439 505 27,300 840 Climbing Boston Center
08:35PM 42.2503 -71.7219 41° Northeast 451 519 28,100 900 Climbing Boston Center
08:36PM 42.3472 -71.6031 42° Northeast 456 525 29,100 1,260 Climbing Boston Center
08:37PM 42.4361 -71.5061 39° Northeast 467 537 30,700 1,260 Climbing Boston Center
08:38PM 42.5289 -71.3919 42° Northeast 457 526 31,700 1,200 Climbing Boston Center
08:39PM 42.6194 -71.2806 42° Northeast 446 513 33,100 1,320 Climbing Boston Center
08:40PM 42.7100 -71.1714 42° Northeast 440 506 34,400 1,320 Climbing Boston Center
08:41PM 42.7986 -71.0650 41° Northeast 435 501 35,800 1,200 Climbing Boston Center
08:42PM 42.8847 -70.9581 42° Northeast 430 495 36,900 960 Climbing Boston Center
08:43PM 42.9769 -70.8425 42° Northeast 418 481 37,800 840 Climbing Boston Center
08:44PM 43.0631 -70.7378 42° Northeast 413 475 38,600 840 Climbing Boston Center
08:45PM 43.1489 -70.6272 43° Northeast 408 470 39,500 840 Climbing Boston Center
08:46PM 43.2325 -70.5222 42° Northeast 408 470 40,300 660 Climbing Boston Center
08:47PM 43.3181 -70.4139 43° Northeast 408 470 40,900 300 Climbing Boston Center
08:48PM 43.4017 -70.3053 43° Northeast 408 470 40,900  Level Boston Center
08:49PM 43.4892 -70.1964 42° Northeast 414 476 40,900  Level Boston Center
08:50PM 43.5725 -70.0903 43° Northeast 414 476 40,900  Level Boston Center
08:51PM 43.6475 -69.9897 44° Northeast 409 471 40,900  Level Boston Center
08:52PM 43.7347 -69.8797 42° Northeast 415 478 40,900  Level Boston Center
08:53PM 43.8197 -69.7697 43° Northeast 415 478 41,000  Climbing Boston Center
08:54PM 43.9067 -69.6564 43° Northeast 415 478 40,900 -60 Descending Boston Center
08:55PM 44.0075 -69.5244 43° Northeast 415 478 40,900  Level Boston Center
08:56PM 44.0964 -69.4131 42° Northeast 415 478 40,900  Level Boston Center
08:57PM 44.1808 -69.2989 44° Northeast 415 478 40,900  Level Boston Center
08:58PM 44.2675 -69.1869 43° Northeast 415 478 40,900  Level Boston Center
08:59PM 44.3578 -69.0717 42° Northeast 415 478 40,900  Level Boston Center
09:00PM 44.4419 -68.9564 44° Northeast 415 478 40,900  Level Boston Center
09:01PM 44.5000 -68.8500 53° Northeast 430 495 40,900  Level Moncton Center
09:02PM 44.5833 -68.7333 45° Northeast 440 506 40,900  Level Moncton Center
09:03PM 44.6667 -68.6333 40° Northeast 430 495 40,900  Level Moncton Center
09:04PM 44.7667 -68.5167 40° Northeast 430 495 40,900  Level Moncton Center
09:05PM 44.8500 -68.3833 49° Northeast 430 495 40,900  Level Moncton Center
09:06PM 44.9333 -68.2667 45° Northeast 430 495 40,900  Level Moncton Center
09:07PM 45.0333 -68.1667 35° Northeast 430 495 40,900  Level Moncton Center
09:08PM 45.1000 -68.0500 51° Northeast 440 506 40,900  Level Moncton Center
09:09PM 45.2000 -67.9167 43° Northeast 430 495 40,900  Level Moncton Center
09:10PM 45.2667 -67.8000 51° Northeast 430 495 40,900  Level Moncton Center
09:11PM 45.3833 -67.6833 35° Northeast 430 495 40,900  Level Moncton Center
09:12PM 45.4667 -67.5667 44° Northeast 440 506 40,900  Level Moncton Center
09:13PM 45.5500 -67.4500 44° Northeast 440 506 40,900  Level Moncton Center
09:14PM 45.6333 -67.3333 44° Northeast 440 506 40,900  Level Moncton Center
09:15PM 45.7167 -67.2000 48° Northeast 440 506 40,900  Level Moncton Center
09:16PM 45.8167 -67.0833 39° Northeast 440 506 40,900  Level Moncton Center
09:17PM 45.9167 -66.9667 39° Northeast 440 506 40,900  Level Moncton Center
09:18PM 46.0000 -66.8500 44° Northeast 440 506 40,900  Level Moncton Center
09:19PM 46.0833 -66.7333 44° Northeast 440 506 40,900  Level Moncton Center
09:20PM 46.1667 -66.6167 44° Northeast 430 495 40,900  Level Moncton Center
09:21PM 46.2500 -66.5000 44° Northeast 440 506 40,900  Level Moncton Center
09:22PM 46.3500 -66.3667 43° Northeast 440 506 40,900  Level Moncton Center
09:23PM 46.4333 -66.2500 44° Northeast 430 495 40,900  Level Moncton Center
09:24PM 46.5167 -66.1167 48° Northeast 440 506 40,900  Level Moncton Center
09:25PM 46.6000 -66.0000 44° Northeast 440 506 40,900  Level Moncton Center
09:26PM 46.7000 -65.8667 42° Northeast 440 506 40,900  Level Moncton Center
09:27PM 46.7833 -65.7333 48° Northeast 440 506 40,900  Level Moncton Center
09:28PM 46.8667 -65.6167 44° Northeast 440 506 40,900  Level Moncton Center
09:29PM 46.9500 -65.5000 44° Northeast 440 506 40,900  Level Moncton Center
09:30PM 47.0500 -65.3833 38° Northeast 440 506 40,900  Level Moncton Center
09:31PM 47.1500 -65.2667 38° Northeast 440 506 40,900  Level Moncton Center
09:32PM 47.2333 -65.1333 47° Northeast 440 506 40,900  Level Moncton Center
09:33PM 47.3167 -64.9833 51° Northeast 440 506 40,900  Level Moncton Center
09:34PM 47.4000 -64.8667 43° Northeast 440 506 40,900  Level Moncton Center
09:35PM 47.4833 -64.7500 43° Northeast 440 506 40,900  Level Moncton Center
09:36PM 47.5667 -64.6167 47° Northeast 440 506 40,900  Level Moncton Center
09:37PM 47.6500 -64.4667 50° Northeast 440 506 40,900  Level Moncton Center
09:38PM 47.7500 -64.3500 38° Northeast 440 506 40,900  Level Moncton Center
09:39PM 47.8333 -64.2167 47° Northeast 440 506 40,900  Level Moncton Center
09:40PM 47.9167 -64.1000 43° Northeast 440 506 40,900  Level Moncton Center
09:41PM 48.0000 -63.9667 47° Northeast 440 506 40,900  Level Moncton Center
09:42PM 48.1000 -63.8167 45° Northeast 440 506 40,900  Level Moncton Center
09:43PM 48.1833 -63.7000 43° Northeast 440 506 40,900  Level Moncton Center
09:44PM 48.2667 -63.5667 47° Northeast 450 518 40,900  Level Moncton Center
09:45PM 48.3500 -63.4333 47° Northeast 450 518 40,900  Level Moncton Center
09:46PM 48.4333 -63.2833 50° Northeast 440 506 40,900  Level Moncton Center
09:47PM 48.5333 -63.1500 41° Northeast 450 518 40,900  Level Moncton Center
09:48PM 48.6167 -63.0333 43° Northeast 450 518 40,900  Level Moncton Center
09:49PM 48.7000 -62.8833 50° Northeast 450 518 40,900  Level Moncton Center
09:50PM 48.8000 -62.7500 41° Northeast 450 518 40,900  Level Moncton Center
09:51PM 48.8667 -62.6167 53° Northeast 450 518 40,900  Level Moncton Center
09:52PM 48.9500 -62.4833 46° Northeast 440 506 40,900  Level Moncton Center
09:53PM 49.0333 -62.3500 46° Northeast 440 506 40,900  Level Moncton Center
09:54PM 49.1333 -62.2000 44° Northeast 450 518 40,900  Level Moncton Center
09:55PM 49.2167 -62.0667 46° Northeast 440 506 40,900  Level Moncton Center
09:56PM 49.3000 -61.9333 46° Northeast 440 506 40,900  Level Moncton Center
09:57PM 49.3833 -61.8000 46° Northeast 440 506 40,900  Level Moncton Center
09:58PM 49.4667 -61.6333 52° Northeast 450 518 40,900  Level Moncton Center
09:59PM 49.5333 -61.5000 52° Northeast 450 518 40,900  Level Moncton Center
10:00PM 49.6333 -61.3500 44° Northeast 460 529 40,900  Level Moncton Center
10:01PM 49.7167 -61.2167 46° Northeast 460 529 40,900  Level Moncton Center
10:02PM 49.8167 -61.0500 47° Northeast 460 529 40,900  Level Moncton Center
10:03PM 49.8833 -60.9167 52° Northeast 460 529 40,900  Level Moncton Center
10:04PM 49.9667 -60.7833 46° Northeast 460 529 40,900  Level Moncton Center
10:05PM 50.0667 -60.6167 47° Northeast 450 518 40,900  Level Moncton Center
10:06PM 50.1500 -60.4833 46° Northeast 460 529 40,900  Level Moncton Center
10:07PM 50.2333 -60.3333 49° Northeast 460 529 40,900  Level Moncton Center
10:08PM 50.3167 -60.1667 52° Northeast 460 529 40,900  Level Moncton Center
10:09PM 50.4000 -60.0333 46° Northeast 460 529 40,900  Level Moncton Center
10:10PM 50.4833 -59.9000 45° Northeast 450 518 40,900  Level Moncton Center
10:11PM 50.5667 -59.7333 52° Northeast 460 529 40,900  Level Moncton Center
10:12PM 50.6500 -59.5667 52° Northeast 460 529 40,900  Level Moncton Center
10:13PM 50.7500 -59.4167 43° Northeast 460 529 40,900  Level Moncton Center
10:14PM 50.8167 -59.2500 58° Northeast 460 529 40,900  Level Moncton Center
10:15PM 50.9000 -59.0833 52° Northeast 470 541 40,900  Level Moncton Center
10:16PM 50.9667 -58.9167 58° Northeast 470 541 40,900  Level Moncton Center
10:17PM 51.0500 -58.7833 45° Northeast 470 541 40,900  Level Moncton Center
10:18PM 51.1167 -58.5833 62° Northeast 470 541 40,900  Level Moncton Center
10:19PM 51.2000 -58.4333 48° Northeast 470 541 40,900  Level Moncton Center
10:20PM 51.3000 -58.2667 46° Northeast 470 541 40,900  Level Moncton Center
10:21PM 51.3667 -58.1000 57° Northeast 470 541 40,900  Level Moncton Center
10:22PM 51.4333 -57.9167 60° Northeast 480 552 40,900  Level Moncton Center
10:23PM 51.5167 -57.7500 51° Northeast 470 541 40,900  Level Moncton Center
10:24PM 51.6000 -57.5667 54° Northeast 480 552 40,900  Level Moncton Center
10:25PM 51.6667 -57.4000 57° Northeast 470 541 40,900  Level Moncton Center
10:26PM 51.7500 -57.2333 51° Northeast 470 541 40,900  Level Moncton Center
10:27PM 51.8333 -57.0500 54° Northeast 480 552 40,900  Level Moncton Center
10:28PM 51.9000 -56.8833 57° Northeast 470 541 40,900  Level Moncton Center
10:29PM 51.9667 -56.7000 59° Northeast 480 552 40,900  Level Moncton Center
10:30PM 52.0500 -56.5333 51° Northeast 480 552 40,900  Level Moncton Center
10:31PM 52.1333 -56.3500 53° Northeast 480 552 40,900  Level Moncton Center
10:32PM 52.2000 -56.1667 59° Northeast 480 552 40,900  Level Moncton Center
10:33PM 52.2833 -56.0000 51° Northeast 480 552 40,900  Level Moncton Center
10:34PM 52.3500 -55.8167 59° Northeast 480 552 40,900  Level Moncton Center
10:35PM 52.4333 -55.6333 53° Northeast 490 564 40,900  Level Moncton Center
10:36PM 52.5167 -55.4500 53° Northeast 470 541 40,900  Level Moncton Center
10:37PM 52.5833 -55.2667 59° Northeast 480 552 40,900  Level Moncton Center
10:38PM 52.6500 -55.0833 59° Northeast 480 552 40,900  Level Moncton Center
10:39PM 52.7333 -54.9000 53° Northeast 490 564 40,900  Level Moncton Center
10:40PM 52.8000 -54.7000 61° Northeast 490 564 40,900  Level Moncton Center
10:41PM 52.8833 -54.5500 47° Northeast 490 564 40,900  Level Moncton Center
10:42PM 52.9667 -54.3333 57° Northeast 480 552 40,900  Level Moncton Center
10:43PM 53.0333 -54.1500 59° Northeast 480 552 40,900  Level Moncton Center
10:44PM 53.1000 -53.9667 59° Northeast 490 564 40,900  Level Moncton Center
10:45PM 53.0667 -54.0667 67° East 491 565 41,000  Climbing ETMS Enhanced Traffic Management System
10:45PM 53.1500 -53.7833 65° Northeast 490 564 40,900 -240 Descending Moncton Center
10:45PM 53.1667 -53.7167 67° East 490 564 40,900  Level Gander Center
10:46PM 53.2000 -53.4833 76° East 490 564 40,900  Level Gander Center
10:47PM 53.2500 -53.2833 67° East 490 564 40,900  Level Gander Center
10:48PM 53.3000 -53.0667 69° East 490 564 40,900  Level Gander Center
10:49PM 53.3500 -52.8667 67° East 490 564 40,900  Level Gander Center
10:50PM 53.4000 -52.6667 67° East 490 564 40,900  Level Gander Center
10:51PM 53.4333 -52.4333 76° East 490 564 40,900  Level Gander Center
10:52PM 53.5000 -52.2167 63° Northeast 490 564 40,900  Level Gander Center
10:53PM 53.5500 -52.0167 67° East 490 564 40,900  Level Gander Center
10:54PM 53.6000 -51.7667 71° East 490 564 40,900  Level Gander Center
10:55PM 53.6500 -51.5667 67° East 490 564 40,900  Level Gander Center
10:56PM 53.7000 -51.3500 69° East 500 575 40,900  Level Gander Center
10:57PM 53.7333 -51.1167 76° East 500 575 40,900  Level Gander Center
10:58PM 53.7667 -50.9000 75° East 500 575 40,900  Level Gander Center
10:59PM 53.8167 -50.6667 70° East 500 575 40,900  Level Gander Center
11:01PM 53.9000 -50.3333 67° East 310 357 40,900  Level Gander Center
11:03PM 54.0016 -49.9935 67° East  Level FlightAware Approximate
11:04PM 54.0000 -50.0000 67° East 496 571 41,000  Level ETMS Enhanced Traffic Management System
11:10PM 54.4235 -48.2579 68° East 496 571 41,000  Level FlightAware Transoceanic
11:11PM 54.4746 -48.0376 68° East 496 571 41,000  Level FlightAware Transoceanic
11:12PM 54.5254 -47.8168 68° East 496 571 41,000  Level FlightAware Transoceanic
11:13PM 54.5757 -47.5954 69° East 496 571 41,000  Level FlightAware Transoceanic
11:14PM 54.6257 -47.3735 69° East 496 571 41,000  Level FlightAware Transoceanic
11:15PM 54.6752 -47.1511 69° East 496 571 41,000  Level FlightAware Transoceanic
11:16PM 54.7244 -46.9281 69° East 496 571 41,000  Level FlightAware Transoceanic
11:17PM 54.7731 -46.7046 69° East 496 571 41,000  Level FlightAware Transoceanic
11:18PM 54.8214 -46.4805 70° East 496 571 41,000  Level FlightAware Transoceanic
11:19PM 54.8693 -46.2559 70° East 496 571 41,000  Level FlightAware Transoceanic
11:20PM 54.9168 -46.0308 70° East 496 571 41,000  Level FlightAware Transoceanic
11:21PM 54.9638 -45.8051 70° East 496 571 41,000  Level FlightAware Transoceanic
11:22PM 55.0105 -45.5789 70° East 496 571 41,000  Level FlightAware Transoceanic
11:23PM 55.0567 -45.3522 71° East 496 571 41,000  Level FlightAware Transoceanic
11:24PM 55.1025 -45.1250 71° East 496 571 41,000  Level FlightAware Transoceanic
11:25PM 55.1479 -44.8972 71° East 496 571 41,000  Level FlightAware Transoceanic
11:26PM 55.1928 -44.6689 71° East 496 571 41,000  Level FlightAware Transoceanic
11:27PM 55.2374 -44.4402 71° East 496 571 41,000  Level FlightAware Transoceanic
11:28PM 55.2815 -44.2108 71° East 496 571 41,000  Level FlightAware Transoceanic
11:29PM 55.3251 -43.9810 72° East 496 571 41,000  Level FlightAware Transoceanic
11:30PM 55.3684 -43.7507 72° East 496 571 41,000  Level FlightAware Transoceanic
11:31PM 55.4112 -43.5199 72° East 496 571 41,000  Level FlightAware Transoceanic
11:32PM 55.4535 -43.2886 72° East 496 571 41,000  Level FlightAware Transoceanic
11:33PM 55.4954 -43.0568 72° East 496 571 41,000  Level FlightAware Transoceanic
11:34PM 55.5369 -42.8245 73° East 496 571 41,000  Level FlightAware Transoceanic
11:35PM 55.5780 -42.5918 73° East 496 571 41,000  Level FlightAware Transoceanic
11:36PM 55.6186 -42.3585 73° East 496 571 41,000  Level FlightAware Transoceanic
11:37PM 55.6587 -42.1247 73° East 496 571 41,000  Level FlightAware Transoceanic
11:38PM 55.6985 -41.8905 73° East 496 571 41,000  Level FlightAware Transoceanic
11:39PM 55.7377 -41.6558 74° East 496 571 41,000  Level FlightAware Transoceanic
11:40PM 55.7766 -41.4207 74° East 496 571 41,000  Level FlightAware Transoceanic
11:41PM 55.8149 -41.1850 74° East 496 571 41,000  Level FlightAware Transoceanic
11:42PM 55.8529 -40.9489 74° East 496 571 41,000  Level FlightAware Transoceanic
11:43PM 55.8903 -40.7124 74° East 496 571 41,000  Level FlightAware Transoceanic
11:44PM 55.9273 -40.4754 75° East 496 571 41,000  Level FlightAware Transoceanic
11:45PM 55.9639 -40.2379 75° East 496 571 41,000  Level FlightAware Transoceanic
11:46PM 55.9971 -40.0193 75° East  Level FlightAware Approximate
11:47PM 56.0299 -39.8003 75° East  Level FlightAware Approximate
11:48PM 56.0429 -39.8297 66° East  Level FlightAware Approximate
11:49PM 56.0946 -39.6224 66° East  Level FlightAware Approximate
11:50PM 56.1460 -39.4146 66° East  Level FlightAware Approximate
11:51PM 56.1970 -39.2062 66° East  Level FlightAware Approximate
11:51PM 56.0000 -40.0000 66° East 496 571 41,000  Level ETMS Enhanced Traffic Management System
11:52PM 56.2476 -38.9973 66° East  Level FlightAware Approximate
11:53PM 56.2980 -38.7878 67° East  Level FlightAware Approximate
11:54PM 56.3479 -38.5778 67° East  Level FlightAware Approximate
11:55PM 56.3975 -38.3672 67° East  Level FlightAware Approximate
11:56PM 56.4468 -38.1561 67° East  Level FlightAware Approximate
11:57PM 56.6517 -37.2544 68° East 496 571 41,000  Level FlightAware Transoceanic
11:58PM 56.7032 -37.0214 68° East 496 571 41,000  Level FlightAware Transoceanic
11:59PM 56.7543 -36.7878 68° East 496 571 41,000  Level FlightAware Transoceanic
12:00AM 56.8050 -36.5535 69° East 496 571 41,000  Level FlightAware Transoceanic
12:01AM 56.8552 -36.3186 69° East 496 571 41,000  Level FlightAware Transoceanic
12:02AM 56.9050 -36.0831 69° East 496 571 41,000  Level FlightAware Transoceanic
12:03AM 56.9543 -35.8469 69° East 496 571 41,000  Level FlightAware Transoceanic
12:04AM 57.0032 -35.6101 69° East 496 571 41,000  Level FlightAware Transoceanic
12:05AM 57.0516 -35.3727 70° East 496 571 41,000  Level FlightAware Transoceanic
12:06AM 57.0996 -35.1347 70° East 496 571 41,000  Level FlightAware Transoceanic
12:07AM 57.1472 -34.8961 70° East 496 571 41,000  Level FlightAware Transoceanic
12:08AM 57.1942 -34.6569 70° East 496 571 41,000  Level FlightAware Transoceanic
12:09AM 57.2409 -34.4170 70° East 496 571 41,000  Level FlightAware Transoceanic
12:10AM 57.2870 -34.1766 71° East 496 571 41,000  Level FlightAware Transoceanic
12:11AM 57.3328 -33.9355 71° East 496 571 41,000  Level FlightAware Transoceanic
12:12AM 57.3780 -33.6939 71° East 496 571 41,000  Level FlightAware Transoceanic
12:13AM 57.4228 -33.4516 71° East 496 571 41,000  Level FlightAware Transoceanic
12:14AM 57.4671 -33.2088 71° East 496 571 41,000  Level FlightAware Transoceanic
12:15AM 57.5110 -32.9653 72° East 496 571 41,000  Level FlightAware Transoceanic
12:16AM 57.5543 -32.7213 72° East 496 571 41,000  Level FlightAware Transoceanic
12:17AM 57.5973 -32.4767 72° East 496 571 41,000  Level FlightAware Transoceanic
12:18AM 57.6397 -32.2316 72° East 496 571 41,000  Level FlightAware Transoceanic
12:19AM 57.6816 -31.9859 72° East 496 571 41,000  Level FlightAware Transoceanic
12:20AM 57.7231 -31.7396 73° East 496 571 41,000  Level FlightAware Transoceanic
12:21AM 57.7641 -31.4927 73° East 496 571 41,000  Level FlightAware Transoceanic
12:22AM 57.8047 -31.2453 73° East 496 571 41,000  Level FlightAware Transoceanic
12:23AM 57.8447 -30.9973 73° East 496 571 41,000  Level FlightAware Transoceanic
12:24AM 57.8843 -30.7488 73° East 496 571 41,000  Level FlightAware Transoceanic
12:25AM 57.9233 -30.4997 74° East 496 571 41,000  Level FlightAware Transoceanic
12:26AM 57.9619 -30.2501 74° East 496 571 41,000  Level FlightAware Transoceanic
12:27AM 57.9969 -30.0204 74° East  Level FlightAware Approximate
12:28AM 58.0315 -29.7903 74° East  Level FlightAware Approximate
12:29AM 58.0270 -29.8099 75° East  Level FlightAware Approximate
12:30AM 58.0594 -29.5785 75° East  Level FlightAware Approximate
12:31AM 58.0913 -29.3466 75° East  Level FlightAware Approximate
12:32AM 58.1229 -29.1143 75° East  Level FlightAware Approximate
12:32AM 58.0000 -30.0000 75° East 517 595 41,000  Level ETMS Enhanced Traffic Management System
12:33AM 58.1540 -28.8815 76° East  Level FlightAware Approximate
12:34AM 58.1847 -28.6484 76° East  Level FlightAware Approximate
12:35AM 58.2150 -28.4149 76° East  Level FlightAware Approximate
12:36AM 58.2449 -28.1810 76° East  Level FlightAware Approximate
12:37AM 58.2743 -27.9467 76° East  Level FlightAware Approximate
12:38AM 58.3780 -27.0894 77° East 517 595 41,000  Level FlightAware Transoceanic
12:39AM 58.4090 -26.8218 78° East 517 595 41,000  Level FlightAware Transoceanic
12:40AM 58.4395 -26.5537 78° East 517 595 41,000  Level FlightAware Transoceanic
12:41AM 58.4695 -26.2852 78° East 517 595 41,000  Level FlightAware Transoceanic
12:42AM 58.4989 -26.0162 78° East 517 595 41,000  Level FlightAware Transoceanic
12:43AM 58.5277 -25.7468 79° East 517 595 41,000  Level FlightAware Transoceanic
12:44AM 58.5559 -25.4770 79° East 517 595 41,000  Level FlightAware Transoceanic
12:45AM 58.5836 -25.2067 79° East 517 595 41,000  Level FlightAware Transoceanic
12:46AM 58.6107 -24.9360 79° East 517 595 41,000  Level FlightAware Transoceanic
12:47AM 58.6372 -24.6649 79° East 517 595 41,000  Level FlightAware Transoceanic
12:48AM 58.6632 -24.3933 80° East 517 595 41,000  Level FlightAware Transoceanic
12:49AM 58.6886 -24.1214 80° East 517 595 41,000  Level FlightAware Transoceanic
12:50AM 58.7134 -23.8491 80° East 517 595 41,000  Level FlightAware Transoceanic
12:51AM 58.7377 -23.5764 80° East 517 595 41,000  Level FlightAware Transoceanic
12:52AM 58.7614 -23.3033 81° East 517 595 41,000  Level FlightAware Transoceanic
12:53AM 58.7845 -23.0298 81° East 517 595 41,000  Level FlightAware Transoceanic
12:54AM 58.8070 -22.7560 81° East 517 595 41,000  Level FlightAware Transoceanic
12:55AM 58.8289 -22.4818 81° East 517 595 41,000  Level FlightAware Transoceanic
12:56AM 58.8503 -22.2073 82° East 517 595 41,000  Level FlightAware Transoceanic
12:57AM 58.8710 -21.9325 82° East 517 595 41,000  Level FlightAware Transoceanic
12:58AM 58.8912 -21.6573 82° East 517 595 41,000  Level FlightAware Transoceanic
12:59AM 58.9108 -21.3818 82° East 517 595 41,000  Level FlightAware Transoceanic
01:00AM 58.9298 -21.1061 83° East 517 595 41,000  Level FlightAware Transoceanic
01:01AM 58.9482 -20.8300 83° East 517 595 41,000  Level FlightAware Transoceanic
01:02AM 58.9661 -20.5536 83° East 517 595 41,000  Level FlightAware Transoceanic
01:03AM 58.9833 -20.2769 83° East 517 595 41,000 -60 Level FlightAware Transoceanic
01:04AM 58.9981 -20.0326 83° East  Level FlightAware Approximate
01:05AM 59.0123 -19.7881 83° East  Level FlightAware Approximate
01:06AM 58.9991 -19.8196 90° East  Level FlightAware Approximate
01:07AM 58.9974 -19.5736 91° East  Level FlightAware Approximate
01:08AM 58.9953 -19.3276 91° East  Level FlightAware Approximate
01:09AM 58.9927 -19.0816 91° East  Level FlightAware Approximate
01:10AM 58.9897 -18.8357 91° East  Level FlightAware Approximate
01:11AM 58.9861 -18.5898 91° East  Level FlightAware Approximate
01:12AM 58.9822 -18.3440 92° East  Level FlightAware Approximate
01:13AM 58.9777 -18.0982 92° East  Level FlightAware Approximate
01:14AM 58.9728 -17.8525 92° East  Level FlightAware Approximate
01:15AM 58.9674 -17.6069 92° East  Level FlightAware Approximate
01:16AM 58.9616 -17.3613 93° East  Level FlightAware Approximate
01:17AM 58.9552 -17.1159 93° East  Level FlightAware Approximate
01:18AM 58.9485 -16.8705 93° East  Level FlightAware Approximate
01:19AM 58.9412 -16.6253 93° East  Level FlightAware Approximate
01:20AM 58.9335 -16.3801 93° East  Level FlightAware Approximate
01:21AM 58.9254 -16.1350 94° East  Level FlightAware Approximate
01:22AM 58.9167 -15.8901 94° East  Level FlightAware Approximate
01:23AM 58.9076 -15.6453 94° East  Level FlightAware Approximate
01:24AM 58.8981 -15.4007 94° East  Level FlightAware Approximate
01:25AM 58.8881 -15.1561 94° East  Level FlightAware Approximate
01:26AM 58.8776 -14.9117 95° East  Level FlightAware Approximate
01:27AM 58.8666 -14.6675 95° East  Level FlightAware Approximate
01:28AM 58.8552 -14.4234 95° East  Level FlightAware Approximate
01:29AM 58.8434 -14.1795 95° East  Level FlightAware Approximate
01:30AM 58.8311 -13.9358 95° East  Level FlightAware Approximate
01:31AM 58.8183 -13.6922 96° East  Level FlightAware Approximate
01:32AM 58.8050 -13.4488 96° East  Level FlightAware Approximate
01:33AM 58.7913 -13.2056 96° East  Level FlightAware Approximate
01:34AM 58.7772 -12.9626 96° East  Level FlightAware Approximate
01:35AM 58.7626 -12.7198 97° East  Level FlightAware Approximate
01:36AM 58.7475 -12.4772 97° East  Level FlightAware Approximate
01:37AM 58.7320 -12.2349 97° East  Level FlightAware Approximate
01:38AM 58.7160 -11.9927 97° East  Level FlightAware Approximate
01:39AM 58.6996 -11.7508 97° East  Level FlightAware Approximate
01:40AM 58.6827 -11.5091 98° East  Level FlightAware Approximate
01:41AM 58.6654 -11.2676 98° East  Level FlightAware Approximate
01:42AM 58.6476 -11.0264 98° East  Level FlightAware Approximate
01:43AM 58.6294 -10.7854 98° East  Level FlightAware Approximate
01:44AM 58.6107 -10.5447 98° East  Level FlightAware Approximate
01:45AM 58.5915 -10.3042 99° East  Level FlightAware Approximate
01:45AM 58.7793 -9.0022 99° East 466 536 39,900  Level FlightAware UK
01:45AM 58.7515 -8.8750 113° Southeast 472 543 38,900 -1,920 Descending FlightAware UK
01:46AM 58.7238 -8.7480 113° Southeast 466 536 38,000 -1,800 Descending FlightAware UK
01:46AM 58.6964 -8.6222 113° Southeast 458 527 37,100 -1,740 Descending FlightAware UK
01:47AM 58.6694 -8.4984 113° Southeast 454 522 36,300 -1,740 Descending FlightAware UK
01:47AM 58.6416 -8.3744 113° Southeast 468 539 35,400 -1,800 Descending FlightAware UK
01:48AM 58.6125 -8.2478 114° Southeast 474 545 34,500 -1,740 Descending FlightAware UK
01:48AM 58.5834 -8.1167 113° Southeast 476 548 33,700 -1,740 Descending FlightAware UK
01:49AM 58.5539 -7.9880 114° Southeast 478 550 32,800 -1,740 Descending FlightAware UK
01:49AM 58.5241 -7.8591 114° Southeast 480 552 32,000 -1,800 Descending FlightAware UK
01:50AM 58.4944 -7.7295 114° Southeast 480 552 31,000 -1,980 Descending FlightAware UK
01:50AM 58.4639 -7.5983 114° Southeast 478 550 30,000 -1,980 Descending FlightAware UK
01:51AM 58.4346 -7.4734 114° Southeast 468 539 29,000 -2,040 Descending FlightAware UK
01:51AM 58.4057 -7.3495 114° Southeast 462 532 28,000 -1,920 Descending FlightAware UK
01:52AM 58.3770 -7.2276 114° Southeast 452 520 27,100 -1,740 Descending FlightAware UK
01:52AM 58.3483 -7.1071 114° Southeast 450 518 26,300 -1,620 Descending FlightAware UK
01:53AM 58.3196 -6.9865 114° Southeast 448 516 25,500 -1,620 Descending FlightAware UK
01:53AM 58.2913 -6.8671 114° Southeast 446 513 24,700 -1,620 Descending FlightAware UK
01:54AM 58.2634 -6.7523 115° Southeast 436 502 23,900 -1,620 Descending FlightAware UK
01:54AM 58.2357 -6.6381 115° Southeast 434 499 23,100 -1,620 Descending FlightAware UK
01:55AM 58.2079 -6.5256 115° Southeast 428 493 22,300 -1,620 Descending FlightAware UK
01:55AM 58.1815 -6.4159 114° Southeast 420 483 21,500 -1,620 Descending FlightAware UK
01:56AM 58.1543 -6.3059 115° Southeast 414 476 20,700 -1,740 Descending FlightAware UK
01:56AM 58.1282 -6.1995 115° Southeast 410 472 19,800 -1,800 Descending FlightAware UK
01:57AM 58.1021 -6.0947 115° Southeast 402 463 18,900 -1,740 Descending FlightAware UK
01:57AM 58.0764 -5.9917 115° Southeast 396 456 18,100 -1,740 Descending FlightAware UK
01:58AM 58.0507 -5.8891 115° Southeast 392 451 17,200 -1,740 Descending FlightAware UK
01:58AM 58.0250 -5.7873 116° Southeast 390 449 16,400 -1,620 Descending FlightAware UK
01:59AM 57.9995 -5.6875 116° Southeast 386 444 15,600 -1,500 Descending FlightAware UK
01:59AM 57.9747 -5.5896 115° Southeast 380 437 14,900 -1,500 Descending FlightAware UK
02:00AM 57.9499 -5.4923 116° Southeast 376 433 14,100 -1,500 Descending FlightAware UK
02:00AM 57.9258 -5.3983 116° Southeast 370 426 13,400 -1,380 Descending FlightAware UK
02:01AM 57.8972 -5.2876 116° Southeast 362 417 12,600 -1,380 Descending FlightAware UK
02:01AM 57.8742 -5.1988 116° Southeast 338 389 11,900 -1,440 Descending FlightAware UK
02:02AM 57.8525 -5.1158 116° Southeast 316 364 11,200 -1,320 Descending FlightAware UK
02:02AM 57.8277 -5.0208 116° Southeast 304 350 10,500 -1,320 Descending FlightAware UK
02:03AM 57.8078 -4.9448 116° Southeast 292 336 9,800 -1,200 Descending FlightAware UK
02:03AM 57.7842 -4.8556 116° Southeast 292 336 9,200 -1,200 Descending FlightAware UK
02:04AM 57.7611 -4.7674 116° Southeast 286 329 8,400 -1,260 Descending FlightAware UK
02:05AM 57.7379 -4.6805 117° Southeast 282 325 7,700 -1,260 Descending FlightAware UK
02:05AM 57.7106 -4.5783 116° Southeast 278 320 6,800 -960 Descending FlightAware UK
02:06AM 57.6876 -4.4920 117° Southeast 278 320 6,500 -240 Descending FlightAware UK
02:07AM 57.6575 -4.3979 121° Southeast 278 320 6,500  Level FlightAware UK
02:07AM 57.6316 -4.3163 121° Southeast 264 304 6,500  Level FlightAware UK
02:08AM 57.6095 -4.2458 120° Southeast 228 262 6,500 -1,020 Level FlightAware UK
02:09AM 57.5834 -4.1653 121° Southeast 240 276 5,200 -1,680 Descending FlightAware UK
02:09AM 57.5565 -4.0822 121° Southeast 232 267 4,200 -1,200 Descending FlightAware UK
02:10AM 57.5793 -4.0083 60° Northeast 212 244 3,600 -660 Descending FlightAware UK
02:11AM 57.6187 -3.9744 25° Northeast 210 242 3,300 -240 Descending FlightAware UK
02:11AM 57.6644 -3.9366 24° Northeast 192 221 3,300 -360 Level FlightAware UK
02:12AM 57.7013 -3.9047 25° Northeast 190 219 2,800 -780 Descending FlightAware UK
02:13AM 57.6987 -3.8519 95° East 180 207 2,400 -840 Descending FlightAware UK
02:15AM 57.5401 -4.0500 214° Southwest  Level Estimated
02:22AM 57.5401 -4.0500 North  Level Estimated
02:23AM 57.5401 -4.0500 North  Level Estimated
02:24AM 57.5401 -4.0500 North  Level Estimated
02:25AM 57.5401 -4.0500 North  Level Estimated
02:26AM 57.5401 -4.0500 North  Level Estimated
02:27AM 57.5401 -4.0500 North  Level Estimated
02:28AM 57.5401 -4.0500 North  Level Estimated
02:29AM 57.5401 -4.0500 North  Level Estimated
02:30AM 57.5401 -4.0500 North  Level Estimated
02:31AM 57.5401 -4.0500 North  Level Estimated
02:32AM 57.5401 -4.0500 North  Level Estimated
02:33AM 57.5401 -4.0500 North  Level Estimated
02:34AM 57.5401 -4.0500 North  Level Estimated